createdAt,value
2022-11-24T00:04:51.931Z,65.83
2022-11-24T00:09:55.436Z,61.60
2022-11-24T00:15:01.258Z,61.77
2022-11-24T00:20:05.315Z,65.70
2022-11-24T00:25:09.247Z,63.03
2022-11-24T00:30:13.143Z,58.43
2022-11-24T00:35:16.435Z,55.03
2022-11-24T00:40:19.942Z,55.70
2022-11-24T00:45:23.100Z,58.27
2022-11-24T00:50:26.714Z,53.90
2022-11-24T00:55:30.292Z,62.33
2022-11-24T01:00:33.834Z,54.90
2022-11-24T01:05:38.818Z,55.37
2022-11-24T01:10:42.343Z,57.33
2022-11-24T01:15:45.957Z,62.13
2022-11-24T01:20:49.601Z,59.67
2022-11-24T01:25:53.143Z,62.27
2022-11-24T01:31:05.878Z,65.53
2022-11-24T01:36:09.232Z,66.00
2022-11-24T01:41:17.681Z,64.27
2022-11-24T01:46:39.631Z,69.10
2022-11-24T01:51:52.894Z,68.90
2022-11-24T01:57:03.313Z,71.77
2022-11-24T02:02:07.174Z,73.47
2022-11-24T02:07:13.669Z,68.83
2022-11-24T02:12:17.382Z,68.33
2022-11-24T02:17:20.806Z,71.07
2022-11-24T02:22:51.562Z,83.13
2022-11-24T02:27:56.400Z,74.50
2022-11-24T02:33:00.502Z,79.40
2022-11-24T02:38:04.262Z,75.33
2022-11-24T02:43:14.183Z,88.83
2022-11-24T02:48:18.048Z,94.07
2022-11-24T02:53:21.392Z,86.03
2022-11-24T02:58:24.863Z,82.53
2022-11-24T03:03:28.679Z,81.20
2022-11-24T03:08:32.372Z,77.70
2022-11-24T03:13:35.856Z,74.23
2022-11-24T03:18:39.322Z,79.00
2022-11-24T03:23:42.811Z,72.97
2022-11-24T03:28:45.968Z,67.20
2022-11-24T03:33:49.493Z,61.40
2022-11-24T03:38:52.805Z,65.90
2022-11-24T03:43:56.239Z,57.97
2022-11-24T03:48:59.989Z,63.90
2022-11-24T03:54:03.454Z,64.17
2022-11-24T03:59:06.824Z,66.43
2022-11-24T04:04:12.439Z,59.27
2022-11-24T04:09:16.049Z,75.93
2022-11-24T04:14:19.904Z,67.73
2022-11-24T04:19:23.405Z,68.73
2022-11-24T04:24:26.844Z,76.70
2022-11-24T04:29:30.532Z,90.20
2022-11-24T04:34:34.043Z,75.40
2022-11-24T04:39:37.625Z,73.00
2022-11-24T04:44:41.904Z,72.37
2022-11-24T04:49:45.424Z,85.70
2022-11-24T04:54:49.832Z,77.10
2022-11-24T04:59:54.655Z,86.17
2022-11-24T05:04:57.939Z,72.90
2022-11-24T05:10:19.449Z,73.57
2022-11-24T05:15:22.709Z,60.20
2022-11-24T05:20:27.060Z,67.67
2022-11-24T05:25:31.031Z,67.63
2022-11-24T05:30:34.666Z,70.23
2022-11-24T05:35:39.418Z,69.77
2022-11-24T05:40:43.831Z,60.77
2022-11-24T05:45:47.174Z,62.77
2022-11-24T05:50:58.008Z,57.67
2022-11-24T05:56:04.879Z,71.20
2022-11-24T06:01:08.668Z,71.07
2022-11-24T06:06:12.289Z,61.73
2022-11-24T06:11:18.179Z,71.00
2022-11-24T06:16:21.758Z,72.77
2022-11-24T06:21:25.319Z,74.80
2022-11-24T06:26:28.939Z,82.40
2022-11-24T06:31:32.455Z,78.83
2022-11-24T06:36:36.216Z,76.57
2022-11-24T06:41:40.499Z,72.77
2022-11-24T06:46:43.778Z,80.10
2022-11-24T06:51:47.554Z,65.43
2022-11-24T06:56:56.383Z,58.97
2022-11-24T07:01:59.919Z,57.90
2022-11-24T07:07:03.670Z,62.97
2022-11-24T07:12:07.194Z,61.10
2022-11-24T07:17:10.717Z,62.40
2022-11-24T07:22:14.618Z,72.20
2022-11-24T07:27:18.088Z,61.37
2022-11-24T07:32:21.993Z,63.27
2022-11-24T07:37:30.897Z,73.13
2022-11-24T07:42:35.094Z,69.67
2022-11-24T07:47:42.121Z,66.13
2022-11-24T07:52:45.668Z,56.27
2022-11-24T07:57:49.767Z,57.43
2022-11-24T08:02:53.550Z,67.50
2022-11-24T08:07:57.142Z,65.47
2022-11-24T08:13:04.504Z,71.47
2022-11-24T08:18:07.799Z,82.83
2022-11-24T08:23:11.418Z,70.10
2022-11-24T08:28:15.644Z,66.73
2022-11-24T08:33:18.947Z,80.50
2022-11-24T08:38:23.390Z,76.17
2022-11-24T08:43:27.471Z,73.47
2022-11-24T08:48:40.298Z,83.43
2022-11-24T08:53:44.739Z,66.83
2022-11-24T08:58:48.209Z,84.87
2022-11-24T09:03:52.602Z,65.10
2022-11-24T09:08:59.177Z,67.57
2022-11-24T09:14:05.512Z,70.60
2022-11-24T09:19:09.417Z,61.17
2022-11-24T09:24:13.067Z,57.27
2022-11-24T09:29:17.129Z,69.57
2022-11-24T09:34:21.980Z,63.40
2022-11-24T09:39:28.521Z,59.77
2022-11-24T09:45:07.213Z,55.50
2022-11-24T09:50:32.435Z,63.20
2022-11-24T09:55:51.941Z,64.23
2022-11-24T10:00:57.159Z,61.80
2022-11-24T10:06:04.584Z,66.27
2022-11-24T10:11:31.796Z,65.20
2022-11-24T10:17:49.844Z,68.93
2022-11-24T10:23:37.015Z,67.80
2022-11-24T10:28:54.144Z,71.93
2022-11-24T10:34:10.198Z,69.20
2022-11-24T10:39:37.132Z,73.53
2022-11-24T10:44:42.797Z,78.17
2022-11-24T10:50:13.906Z,66.93
2022-11-24T10:55:17.810Z,68.33
2022-11-24T11:00:21.167Z,65.87
2022-11-24T11:05:34.114Z,81.13
2022-11-24T11:10:37.309Z,81.37
2022-11-24T11:15:40.716Z,77.57
2022-11-24T11:20:55.550Z,72.07
2022-11-24T11:26:18.252Z,56.53
2022-11-24T11:31:23.008Z,71.10
2022-11-24T11:36:27.680Z,64.97
2022-11-24T11:41:35.429Z,66.07
2022-11-24T11:46:39.196Z,72.60
2022-11-24T11:51:59.759Z,56.67
2022-11-24T11:57:12.727Z,70.33
2022-11-24T12:02:38.038Z,60.37
2022-11-24T12:08:21.052Z,67.43
2022-11-24T12:13:49.427Z,72.20
2022-11-24T12:19:16.266Z,71.93
2022-11-24T12:24:47.633Z,66.43
2022-11-24T12:30:18.870Z,62.83
2022-11-24T12:35:43.471Z,62.63
2022-11-24T12:47:04.347Z,73.23
2022-11-24T12:52:23.601Z,67.23
2022-11-24T12:57:33.210Z,60.13
2022-11-24T13:02:45.680Z,59.70
2022-11-24T13:07:56.709Z,68.93
2022-11-24T13:13:11.798Z,66.30
2022-11-24T13:18:47.501Z,58.13
2022-11-24T13:24:02.406Z,55.37
2022-11-24T13:29:18.260Z,64.60
2022-11-24T13:34:40.044Z,62.57
2022-11-24T13:39:58.909Z,60.17
2022-11-24T13:45:05.175Z,72.03
2022-11-24T13:50:25.050Z,68.07
2022-11-24T13:55:40.590Z,68.47
2022-11-24T14:01:21.375Z,64.43
2022-11-24T14:06:40.112Z,69.37
2022-11-24T14:11:44.565Z,78.13
2022-11-24T14:16:47.861Z,73.10
2022-11-24T14:21:51.141Z,64.13
2022-11-24T14:26:54.601Z,66.70
2022-11-24T14:32:03.994Z,63.67
2022-11-24T14:37:10.738Z,66.30
2022-11-24T14:42:22.071Z,60.50
2022-11-24T14:47:36.666Z,69.67
2022-11-24T14:52:51.855Z,59.13
2022-11-24T14:58:00.780Z,60.90
2022-11-24T15:03:19.816Z,56.13
2022-11-24T15:08:26.092Z,65.33
2022-11-24T15:13:34.451Z,74.37
2022-11-24T15:18:44.301Z,57.47
2022-11-24T15:24:06.732Z,59.93
2022-11-24T15:29:11.575Z,71.07
2022-11-24T15:34:17.571Z,72.57
2022-11-24T15:39:20.842Z,57.17
2022-11-24T15:44:24.590Z,56.93
2022-11-24T15:49:28.241Z,66.83
2022-11-24T15:54:31.486Z,65.20
2022-11-24T15:59:36.064Z,70.93
2022-11-24T16:04:42.342Z,70.20
2022-11-24T16:09:46.654Z,67.17
2022-11-24T16:14:50.171Z,70.23
2022-11-24T16:20:00.240Z,64.20
2022-11-24T16:25:05.332Z,75.60
2022-11-24T16:30:12.645Z,72.53
2022-11-24T16:35:16.504Z,77.67
2022-11-24T16:40:20.078Z,77.00
2022-11-24T16:45:23.782Z,83.57
2022-11-24T16:50:27.613Z,73.47
2022-11-24T16:55:31.152Z,77.83
2022-11-24T17:00:34.980Z,69.90
2022-11-24T17:05:38.643Z,79.93
2022-11-24T17:10:42.802Z,89.50
2022-11-24T17:15:53.803Z,73.50
2022-11-24T17:21:03.212Z,76.23
2022-11-24T17:26:16.533Z,83.10
2022-11-24T17:31:27.075Z,84.93
2022-11-24T17:36:34.638Z,71.47
2022-11-24T17:41:41.042Z,70.47
2022-11-24T17:46:45.579Z,86.33
2022-11-24T17:51:51.093Z,78.33
2022-11-24T17:56:56.415Z,83.50
2022-11-24T18:02:00.842Z,71.57
2022-11-24T18:07:05.542Z,84.97
2022-11-24T18:12:10.182Z,92.37
2022-11-24T18:17:16.902Z,101.80
2022-11-24T18:22:43.067Z,87.63
2022-11-24T18:27:46.679Z,86.60
2022-11-24T18:32:53.499Z,87.37
2022-11-24T18:38:01.191Z,87.83
2022-11-24T18:43:08.149Z,98.33
2022-11-24T18:48:13.747Z,92.40
2022-11-24T18:53:22.091Z,95.93
2022-11-24T18:58:32.147Z,93.63
2022-11-24T19:04:04.002Z,87.63
2022-11-24T19:09:14.642Z,89.37
2022-11-24T19:14:23.546Z,102.40
2022-11-24T19:19:29.971Z,87.67
2022-11-24T19:24:36.955Z,100.30
2022-11-24T19:29:43.149Z,100.27
2022-11-24T19:34:48.638Z,97.53
2022-11-24T19:39:53.010Z,110.67
2022-11-24T19:44:58.339Z,114.77
2022-11-24T19:50:07.347Z,107.03
2022-11-24T19:55:17.390Z,125.60
2022-11-24T20:00:22.899Z,102.40
2022-11-24T20:05:27.989Z,109.53
2022-11-24T20:10:32.970Z,127.83
2022-11-24T20:15:38.118Z,119.43
2022-11-24T20:20:44.569Z,121.13
2022-11-24T20:25:50.979Z,130.50
2022-11-24T20:30:56.529Z,122.70
2022-11-24T20:36:28.588Z,117.20
2022-11-24T20:41:37.519Z,116.50
2022-11-24T20:46:48.698Z,113.70
2022-11-24T20:51:56.530Z,113.40
2022-11-24T20:57:02.483Z,109.17
2022-11-24T21:02:06.406Z,105.17
2022-11-24T21:07:15.130Z,110.17
2022-11-24T21:12:19.521Z,124.97
2022-11-24T21:17:23.612Z,110.93
2022-11-24T21:22:28.760Z,126.17
2022-11-24T21:27:32.737Z,119.87
2022-11-24T21:32:37.242Z,117.50
2022-11-24T21:37:42.781Z,125.87
2022-11-24T21:42:49.013Z,136.03
2022-11-24T21:47:53.848Z,139.80
2022-11-24T21:53:03.225Z,134.27
2022-11-24T21:58:08.279Z,126.37
2022-11-24T22:03:12.689Z,134.83
2022-11-24T22:08:17.588Z,121.20
2022-11-24T22:13:21.458Z,125.97
2022-11-24T22:18:24.691Z,142.43
2022-11-24T22:23:28.910Z,111.13
2022-11-24T22:28:37.031Z,108.30
2022-11-24T22:33:41.106Z,113.93
2022-11-24T22:38:46.348Z,119.13
2022-11-24T22:43:51.070Z,108.83
2022-11-24T22:48:55.749Z,100.43
2022-11-24T22:54:01.879Z,100.30
2022-11-24T22:59:05.723Z,100.83
2022-11-24T23:04:09.347Z,88.27
2022-11-24T23:09:13.220Z,99.17
2022-11-24T23:14:17.429Z,89.90
2022-11-24T23:19:21.631Z,84.30
2022-11-24T23:24:25.260Z,93.50
2022-11-24T23:29:28.899Z,91.53
2022-11-24T23:34:32.825Z,85.17
2022-11-24T23:39:36.168Z,84.17
2022-11-24T23:44:39.226Z,108.73
2022-11-24T23:49:42.701Z,82.33
